sensor_id;sensor_type;location;lat;lon;timestamp;P1;durP1;ratioP1;P2;durP2;ratioP2
20179;SDS011;10249;48.900;9.090;2023-07-08T00:01:59;15.20;;;14.50;;
20179;SDS011;10249;48.900;9.090;2023-07-08T00:04:27;15.00;;;14.40;;
20179;SDS011;10249;48.900;9.090;2023-07-08T00:06:54;15.17;;;14.47;;
20179;SDS011;10249;48.900;9.090;2023-07-08T00:09:21;15.33;;;14.63;;
20179;SDS011;10249;48.900;9.090;2023-07-08T00:11:48;15.20;;;14.50;;
20179;SDS011;10249;48.900;9.090;2023-07-08T00:14:16;15.30;;;14.60;;
20179;SDS011;10249;48.900;9.090;2023-07-08T00:16:43;15.17;;;14.47;;
20179;SDS011;10249;48.900;9.090;2023-07-08T00:19:10;15.33;;;14.63;;
20179;SDS011;10249;48.900;9.090;2023-07-08T00:21:39;15.07;;;14.37;;
20179;SDS011;10249;48.900;9.090;2023-07-08T00:24:06;14.97;;;14.27;;
20179;SDS011;10249;48.900;9.090;2023-07-08T00:26:33;15.20;;;14.50;;
20179;SDS011;10249;48.900;9.090;2023-07-08T00:29:00;14.90;;;14.30;;
20179;SDS011;10249;48.900;9.090;2023-07-08T00:31:28;15.17;;;14.47;;
20179;SDS011;10249;48.900;9.090;2023-07-08T00:33:57;15.20;;;14.50;;
20179;SDS011;10249;48.900;9.090;2023-07-08T00:36:24;15.37;;;14.67;;
20179;SDS011;10249;48.900;9.090;2023-07-08T00:38:53;15.30;;;14.60;;
20179;SDS011;10249;48.900;9.090;2023-07-08T00:41:21;14.97;;;14.30;;
20179;SDS011;10249;48.900;9.090;2023-07-08T00:43:50;15.10;;;14.40;;
20179;SDS011;10249;48.900;9.090;2023-07-08T00:46:23;14.93;;;14.33;;
20179;SDS011;10249;48.900;9.090;2023-07-08T00:48:52;15.03;;;14.33;;
20179;SDS011;10249;48.900;9.090;2023-07-08T00:51:19;15.10;;;14.40;;
20179;SDS011;10249;48.900;9.090;2023-07-08T00:53:49;14.90;;;14.23;;
20179;SDS011;10249;48.900;9.090;2023-07-08T00:56:18;14.87;;;14.27;;
20179;SDS011;10249;48.900;9.090;2023-07-08T00:58:48;14.77;;;14.17;;
20179;SDS011;10249;48.900;9.090;2023-07-08T01:01:16;15.00;;;14.40;;
20179;SDS011;10249;48.900;9.090;2023-07-08T01:03:47;14.93;;;14.33;;
20179;SDS011;10249;48.900;9.090;2023-07-08T01:06:15;14.90;;;14.30;;
20179;SDS011;10249;48.900;9.090;2023-07-08T01:08:42;14.90;;;14.30;;
20179;SDS011;10249;48.900;9.090;2023-07-08T01:11:09;14.80;;;14.20;;
20179;SDS011;10249;48.900;9.090;2023-07-08T01:13:39;15.00;;;14.40;;
20179;SDS011;10249;48.900;9.090;2023-07-08T01:16:07;14.80;;;14.20;;
20179;SDS011;10249;48.900;9.090;2023-07-08T01:18:35;14.67;;;14.07;;
20179;SDS011;10249;48.900;9.090;2023-07-08T01:21:03;14.80;;;14.20;;
20179;SDS011;10249;48.900;9.090;2023-07-08T01:23:33;14.70;;;14.10;;
20179;SDS011;10249;48.900;9.090;2023-07-08T01:26:01;14.97;;;14.37;;
20179;SDS011;10249;48.900;9.090;2023-07-08T01:28:28;14.90;;;14.30;;
20179;SDS011;10249;48.900;9.090;2023-07-08T01:30:56;14.97;;;14.37;;
20179;SDS011;10249;48.900;9.090;2023-07-08T01:33:23;14.77;;;14.17;;
20179;SDS011;10249;48.900;9.090;2023-07-08T01:35:51;14.77;;;14.17;;
20179;SDS011;10249;48.900;9.090;2023-07-08T01:38:21;14.80;;;14.20;;
20179;SDS011;10249;48.900;9.090;2023-07-08T01:40:52;15.00;;;14.40;;
20179;SDS011;10249;48.900;9.090;2023-07-08T01:43:19;14.80;;;14.20;;
20179;SDS011;10249;48.900;9.090;2023-07-08T01:45:47;14.80;;;14.20;;
20179;SDS011;10249;48.900;9.090;2023-07-08T01:48:15;14.60;;;14.00;;
20179;SDS011;10249;48.900;9.090;2023-07-08T01:50:44;14.57;;;13.97;;
20179;SDS011;10249;48.900;9.090;2023-07-08T01:53:14;14.63;;;14.03;;
20179;SDS011;10249;48.900;9.090;2023-07-08T01:55:41;14.70;;;14.10;;
20179;SDS011;10249;48.900;9.090;2023-07-08T01:58:10;14.90;;;14.30;;
20179;SDS011;10249;48.900;9.090;2023-07-08T02:00:37;14.90;;;14.30;;
20179;SDS011;10249;48.900;9.090;2023-07-08T02:03:04;14.90;;;14.30;;
20179;SDS011;10249;48.900;9.090;2023-07-08T02:05:31;14.80;;;14.20;;
20179;SDS011;10249;48.900;9.090;2023-07-08T02:07:59;14.80;;;14.20;;
20179;SDS011;10249;48.900;9.090;2023-07-08T02:10:26;14.60;;;14.00;;
20179;SDS011;10249;48.900;9.090;2023-07-08T02:12:53;14.63;;;14.03;;
20179;SDS011;10249;48.900;9.090;2023-07-08T02:15:21;14.50;;;13.90;;
20179;SDS011;10249;48.900;9.090;2023-07-08T02:17:49;14.57;;;13.97;;
20179;SDS011;10249;48.900;9.090;2023-07-08T02:20:16;14.50;;;13.90;;
20179;SDS011;10249;48.900;9.090;2023-07-08T02:22:43;14.70;;;14.10;;
20179;SDS011;10249;48.900;9.090;2023-07-08T02:25:10;14.50;;;13.90;;
20179;SDS011;10249;48.900;9.090;2023-07-08T02:27:37;14.43;;;13.83;;
20179;SDS011;10249;48.900;9.090;2023-07-08T02:30:05;14.60;;;14.00;;
20179;SDS011;10249;48.900;9.090;2023-07-08T02:32:34;14.50;;;13.90;;
20179;SDS011;10249;48.900;9.090;2023-07-08T02:35:04;14.47;;;13.87;;
20179;SDS011;10249;48.900;9.090;2023-07-08T02:37:31;14.50;;;13.90;;
20179;SDS011;10249;48.900;9.090;2023-07-08T02:39:58;14.67;;;14.07;;
20179;SDS011;10249;48.900;9.090;2023-07-08T02:42:25;14.40;;;13.80;;
20179;SDS011;10249;48.900;9.090;2023-07-08T02:44:53;14.30;;;13.70;;
20179;SDS011;10249;48.900;9.090;2023-07-08T02:47:20;14.47;;;13.87;;
20179;SDS011;10249;48.900;9.090;2023-07-08T02:49:48;14.37;;;13.77;;
20179;SDS011;10249;48.900;9.090;2023-07-08T02:52:17;14.10;;;13.50;;
20179;SDS011;10249;48.900;9.090;2023-07-08T02:54:44;14.23;;;13.63;;
20179;SDS011;10249;48.900;9.090;2023-07-08T02:57:11;13.63;;;13.13;;
20179;SDS011;10249;48.900;9.090;2023-07-08T02:59:38;13.60;;;13.10;;
20179;SDS011;10249;48.900;9.090;2023-07-08T03:02:05;13.57;;;13.07;;
20179;SDS011;10249;48.900;9.090;2023-07-08T03:04:32;13.50;;;13.00;;
20179;SDS011;10249;48.900;9.090;2023-07-08T03:07:06;13.57;;;13.07;;
20179;SDS011;10249;48.900;9.090;2023-07-08T03:09:36;13.97;;;13.40;;
20179;SDS011;10249;48.900;9.090;2023-07-08T03:12:04;13.50;;;13.00;;
20179;SDS011;10249;48.900;9.090;2023-07-08T03:14:31;13.60;;;13.10;;
20179;SDS011;10249;48.900;9.090;2023-07-08T03:16:58;13.97;;;13.37;;
20179;SDS011;10249;48.900;9.090;2023-07-08T03:19:25;14.03;;;13.43;;
20179;SDS011;10249;48.900;9.090;2023-07-08T03:21:52;14.33;;;13.73;;
20179;SDS011;10249;48.900;9.090;2023-07-08T03:24:21;14.40;;;13.80;;
20179;SDS011;10249;48.900;9.090;2023-07-08T03:26:48;14.30;;;13.70;;
20179;SDS011;10249;48.900;9.090;2023-07-08T03:29:19;14.40;;;13.80;;
20179;SDS011;10249;48.900;9.090;2023-07-08T03:31:46;14.40;;;13.80;;
20179;SDS011;10249;48.900;9.090;2023-07-08T03:34:14;14.40;;;13.80;;
20179;SDS011;10249;48.900;9.090;2023-07-08T03:36:42;14.37;;;13.77;;
20179;SDS011;10249;48.900;9.090;2023-07-08T03:39:13;14.23;;;13.63;;
20179;SDS011;10249;48.900;9.090;2023-07-08T03:41:42;14.50;;;13.90;;
20179;SDS011;10249;48.900;9.090;2023-07-08T03:44:09;14.23;;;13.63;;
20179;SDS011;10249;48.900;9.090;2023-07-08T03:46:36;14.30;;;13.70;;
20179;SDS011;10249;48.900;9.090;2023-07-08T03:49:03;14.40;;;13.80;;
20179;SDS011;10249;48.900;9.090;2023-07-08T03:51:32;14.23;;;13.63;;
20179;SDS011;10249;48.900;9.090;2023-07-08T03:53:59;14.10;;;13.50;;
20179;SDS011;10249;48.900;9.090;2023-07-08T03:56:27;14.40;;;13.80;;
20179;SDS011;10249;48.900;9.090;2023-07-08T03:58:56;14.20;;;13.60;;
20179;SDS011;10249;48.900;9.090;2023-07-08T04:01:23;14.43;;;13.83;;
20179;SDS011;10249;48.900;9.090;2023-07-08T04:03:51;14.50;;;13.90;;
20179;SDS011;10249;48.900;9.090;2023-07-08T04:06:19;14.40;;;13.80;;
20179;SDS011;10249;48.900;9.090;2023-07-08T04:08:46;14.40;;;13.80;;
20179;SDS011;10249;48.900;9.090;2023-07-08T04:11:14;14.60;;;14.00;;
20179;SDS011;10249;48.900;9.090;2023-07-08T04:13:42;14.33;;;13.73;;
20179;SDS011;10249;48.900;9.090;2023-07-08T04:16:13;14.30;;;13.70;;
20179;SDS011;10249;48.900;9.090;2023-07-08T04:18:41;14.53;;;13.93;;
20179;SDS011;10249;48.900;9.090;2023-07-08T04:21:08;14.47;;;13.87;;
20179;SDS011;10249;48.900;9.090;2023-07-08T04:23:35;14.27;;;13.67;;
20179;SDS011;10249;48.900;9.090;2023-07-08T04:26:03;14.30;;;13.70;;
20179;SDS011;10249;48.900;9.090;2023-07-08T04:28:30;14.50;;;13.90;;
20179;SDS011;10249;48.900;9.090;2023-07-08T04:30:57;14.70;;;14.10;;
20179;SDS011;10249;48.900;9.090;2023-07-08T04:33:25;14.40;;;13.80;;
20179;SDS011;10249;48.900;9.090;2023-07-08T04:35:52;14.60;;;14.00;;
20179;SDS011;10249;48.900;9.090;2023-07-08T04:38:21;14.57;;;13.97;;
20179;SDS011;10249;48.900;9.090;2023-07-08T04:40:48;14.60;;;14.00;;
20179;SDS011;10249;48.900;9.090;2023-07-08T04:43:15;14.57;;;13.97;;
20179;SDS011;10249;48.900;9.090;2023-07-08T04:45:44;14.57;;;13.97;;
20179;SDS011;10249;48.900;9.090;2023-07-08T04:48:12;14.70;;;14.10;;
20179;SDS011;10249;48.900;9.090;2023-07-08T04:50:41;14.50;;;13.90;;
20179;SDS011;10249;48.900;9.090;2023-07-08T04:53:09;14.70;;;14.10;;
20179;SDS011;10249;48.900;9.090;2023-07-08T04:55:37;14.70;;;14.10;;
20179;SDS011;10249;48.900;9.090;2023-07-08T04:58:04;14.60;;;14.00;;
20179;SDS011;10249;48.900;9.090;2023-07-08T05:00:32;14.60;;;14.00;;
20179;SDS011;10249;48.900;9.090;2023-07-08T05:02:59;14.60;;;14.00;;
20179;SDS011;10249;48.900;9.090;2023-07-08T05:05:26;14.57;;;13.97;;
20179;SDS011;10249;48.900;9.090;2023-07-08T05:07:55;14.90;;;14.20;;
20179;SDS011;10249;48.900;9.090;2023-07-08T05:10:22;15.00;;;14.30;;
20179;SDS011;10249;48.900;9.090;2023-07-08T05:12:49;14.50;;;13.90;;
20179;SDS011;10249;48.900;9.090;2023-07-08T05:15:16;14.70;;;14.10;;
20179;SDS011;10249;48.900;9.090;2023-07-08T05:17:44;14.97;;;14.27;;
20179;SDS011;10249;48.900;9.090;2023-07-08T05:20:12;15.10;;;14.40;;
20179;SDS011;10249;48.900;9.090;2023-07-08T05:22:39;15.00;;;14.30;;
20179;SDS011;10249;48.900;9.090;2023-07-08T05:25:10;14.60;;;14.00;;
20179;SDS011;10249;48.900;9.090;2023-07-08T05:27:37;14.70;;;14.10;;
20179;SDS011;10249;48.900;9.090;2023-07-08T05:30:06;15.07;;;14.37;;
20179;SDS011;10249;48.900;9.090;2023-07-08T05:32:34;14.53;;;13.93;;
20179;SDS011;10249;48.900;9.090;2023-07-08T05:35:01;14.60;;;14.00;;
20179;SDS011;10249;48.900;9.090;2023-07-08T05:37:28;14.80;;;14.13;;
20179;SDS011;10249;48.900;9.090;2023-07-08T05:39:55;15.10;;;14.40;;
20179;SDS011;10249;48.900;9.090;2023-07-08T05:42:26;14.63;;;14.03;;
20179;SDS011;10249;48.900;9.090;2023-07-08T05:44:53;14.73;;;14.03;;
20179;SDS011;10249;48.900;9.090;2023-07-08T05:47:21;14.90;;;14.20;;
20179;SDS011;10249;48.900;9.090;2023-07-08T05:49:48;15.33;;;14.63;;
20179;SDS011;10249;48.900;9.090;2023-07-08T05:52:15;15.03;;;14.43;;
20179;SDS011;10249;48.900;9.090;2023-07-08T05:54:43;15.30;;;14.60;;
20179;SDS011;10249;48.900;9.090;2023-07-08T05:57:10;15.43;;;14.73;;
20179;SDS011;10249;48.900;9.090;2023-07-08T05:59:39;15.20;;;14.50;;
20179;SDS011;10249;48.900;9.090;2023-07-08T06:02:08;15.20;;;14.50;;
20179;SDS011;10249;48.900;9.090;2023-07-08T06:04:36;16.00;;;15.30;;
20179;SDS011;10249;48.900;9.090;2023-07-08T06:07:04;15.00;;;14.30;;
20179;SDS011;10249;48.900;9.090;2023-07-08T06:09:31;15.30;;;14.60;;
20179;SDS011;10249;48.900;9.090;2023-07-08T06:11:58;15.10;;;14.40;;
20179;SDS011;10249;48.900;9.090;2023-07-08T06:14:25;15.10;;;14.40;;
20179;SDS011;10249;48.900;9.090;2023-07-08T06:16:54;14.97;;;14.27;;
20179;SDS011;10249;48.900;9.090;2023-07-08T06:19:21;15.13;;;14.43;;
20179;SDS011;10249;48.900;9.090;2023-07-08T06:21:48;14.73;;;14.03;;
20179;SDS011;10249;48.900;9.090;2023-07-08T06:24:15;15.27;;;14.57;;
20179;SDS011;10249;48.900;9.090;2023-07-08T06:26:43;15.07;;;14.37;;
20179;SDS011;10249;48.900;9.090;2023-07-08T06:29:10;15.20;;;14.50;;
20179;SDS011;10249;48.900;9.090;2023-07-08T06:31:37;15.00;;;14.30;;
20179;SDS011;10249;48.900;9.090;2023-07-08T06:34:05;15.40;;;14.70;;
20179;SDS011;10249;48.900;9.090;2023-07-08T06:36:33;15.37;;;14.67;;
20179;SDS011;10249;48.900;9.090;2023-07-08T06:39:00;15.07;;;14.37;;
20179;SDS011;10249;48.900;9.090;2023-07-08T06:41:27;15.50;;;14.70;;
20179;SDS011;10249;48.900;9.090;2023-07-08T06:43:54;15.80;;;15.10;;
20179;SDS011;10249;48.900;9.090;2023-07-08T06:46:23;15.30;;;14.60;;
20179;SDS011;10249;48.900;9.090;2023-07-08T06:48:50;15.43;;;14.73;;
20179;SDS011;10249;48.900;9.090;2023-07-08T06:51:20;15.13;;;14.43;;
20179;SDS011;10249;48.900;9.090;2023-07-08T06:53:47;15.10;;;14.40;;
20179;SDS011;10249;48.900;9.090;2023-07-08T06:56:14;15.60;;;14.90;;
20179;SDS011;10249;48.900;9.090;2023-07-08T06:58:41;14.67;;;13.97;;
20179;SDS011;10249;48.900;9.090;2023-07-08T07:01:08;15.20;;;14.50;;
20179;SDS011;10249;48.900;9.090;2023-07-08T07:03:35;14.98;;;14.27;;
20179;SDS011;10249;48.900;9.090;2023-07-08T07:06:02;15.20;;;14.50;;
20179;SDS011;10249;48.900;9.090;2023-07-08T07:08:31;14.95;;;14.25;;
20179;SDS011;10249;48.900;9.090;2023-07-08T07:10:58;15.00;;;14.30;;
20179;SDS011;10249;48.900;9.090;2023-07-08T07:13:25;15.00;;;14.30;;
20179;SDS011;10249;48.900;9.090;2023-07-08T07:15:52;14.77;;;14.07;;
20179;SDS011;10249;48.900;9.090;2023-07-08T07:18:19;14.93;;;14.23;;
20179;SDS011;10249;48.900;9.090;2023-07-08T07:20:48;15.15;;;14.45;;
20179;SDS011;10249;48.900;9.090;2023-07-08T07:23:15;15.43;;;14.60;;
20179;SDS011;10249;48.900;9.090;2023-07-08T07:25:44;15.43;;;14.73;;
20179;SDS011;10249;48.900;9.090;2023-07-08T07:28:12;15.20;;;14.50;;
20179;SDS011;10249;48.900;9.090;2023-07-08T07:30:41;15.00;;;14.30;;
20179;SDS011;10249;48.900;9.090;2023-07-08T07:33:08;15.02;;;14.32;;
20179;SDS011;10249;48.900;9.090;2023-07-08T07:35:36;15.50;;;14.80;;
20179;SDS011;10249;48.900;9.090;2023-07-08T07:38:03;15.90;;;15.10;;
20179;SDS011;10249;48.900;9.090;2023-07-08T07:40:30;15.18;;;14.48;;
20179;SDS011;10249;48.900;9.090;2023-07-08T07:42:58;15.07;;;14.38;;
20179;SDS011;10249;48.900;9.090;2023-07-08T07:45:26;15.30;;;14.60;;
20179;SDS011;10249;48.900;9.090;2023-07-08T07:47:54;15.70;;;15.00;;
20179;SDS011;10249;48.900;9.090;2023-07-08T07:50:21;15.25;;;14.55;;
20179;SDS011;10249;48.900;9.090;2023-07-08T07:52:48;15.15;;;14.45;;
20179;SDS011;10249;48.900;9.090;2023-07-08T07:55:15;15.10;;;14.40;;
20179;SDS011;10249;48.900;9.090;2023-07-08T07:57:42;15.13;;;14.43;;
20179;SDS011;10249;48.900;9.090;2023-07-08T08:00:12;16.98;;;15.80;;
20179;SDS011;10249;48.900;9.090;2023-07-08T08:02:40;15.18;;;14.48;;
20179;SDS011;10249;48.900;9.090;2023-07-08T08:05:07;15.35;;;14.65;;
20179;SDS011;10249;48.900;9.090;2023-07-08T08:07:34;15.30;;;14.60;;
20179;SDS011;10249;48.900;9.090;2023-07-08T08:10:02;15.38;;;14.68;;
20179;SDS011;10249;48.900;9.090;2023-07-08T08:12:29;15.32;;;14.63;;
20179;SDS011;10249;48.900;9.090;2023-07-08T08:14:56;17.48;;;16.67;;
20179;SDS011;10249;48.900;9.090;2023-07-08T08:17:25;15.10;;;14.40;;
20179;SDS011;10249;48.900;9.090;2023-07-08T08:19:52;15.30;;;14.60;;
20179;SDS011;10249;48.900;9.090;2023-07-08T08:22:19;15.30;;;14.60;;
20179;SDS011;10249;48.900;9.090;2023-07-08T08:24:47;14.82;;;14.13;;
20179;SDS011;10249;48.900;9.090;2023-07-08T08:27:14;15.20;;;14.50;;
20179;SDS011;10249;48.900;9.090;2023-07-08T08:29:41;15.45;;;14.75;;
20179;SDS011;10249;48.900;9.090;2023-07-08T08:32:08;15.25;;;14.55;;
20179;SDS011;10249;48.900;9.090;2023-07-08T08:34:37;15.40;;;14.70;;
20179;SDS011;10249;48.900;9.090;2023-07-08T08:37:04;15.90;;;15.20;;
20179;SDS011;10249;48.900;9.090;2023-07-08T08:39:31;15.90;;;15.20;;
20179;SDS011;10249;48.900;9.090;2023-07-08T08:41:58;15.07;;;14.38;;
20179;SDS011;10249;48.900;9.090;2023-07-08T08:44:28;15.10;;;14.40;;
20179;SDS011;10249;48.900;9.090;2023-07-08T08:47:01;15.05;;;14.35;;
20179;SDS011;10249;48.900;9.090;2023-07-08T08:49:32;15.07;;;14.38;;
20179;SDS011;10249;48.900;9.090;2023-07-08T08:52:00;15.10;;;14.40;;
20179;SDS011;10249;48.900;9.090;2023-07-08T08:54:27;15.10;;;14.40;;
20179;SDS011;10249;48.900;9.090;2023-07-08T08:56:57;15.85;;;15.10;;
20179;SDS011;10249;48.900;9.090;2023-07-08T08:59:30;15.18;;;14.48;;
20179;SDS011;10249;48.900;9.090;2023-07-08T09:01:59;15.20;;;14.50;;
20179;SDS011;10249;48.900;9.090;2023-07-08T09:04:28;15.38;;;14.68;;
20179;SDS011;10249;48.900;9.090;2023-07-08T09:07:01;15.07;;;14.38;;
20179;SDS011;10249;48.900;9.090;2023-07-08T09:09:32;15.10;;;14.40;;
20179;SDS011;10249;48.900;9.090;2023-07-08T09:12:04;15.07;;;14.38;;
20179;SDS011;10249;48.900;9.090;2023-07-08T09:14:32;15.00;;;14.30;;
20179;SDS011;10249;48.900;9.090;2023-07-08T09:17:04;15.10;;;14.40;;
20179;SDS011;10249;48.900;9.090;2023-07-08T09:19:39;14.88;;;14.18;;
20179;SDS011;10249;48.900;9.090;2023-07-08T09:22:10;15.00;;;14.30;;
20179;SDS011;10249;48.900;9.090;2023-07-08T09:24:41;15.32;;;14.63;;
20179;SDS011;10249;48.900;9.090;2023-07-08T09:27:09;15.10;;;14.40;;
20179;SDS011;10249;48.900;9.090;2023-07-08T09:29:36;15.43;;;14.73;;
20179;SDS011;10249;48.900;9.090;2023-07-08T09:32:11;14.98;;;14.27;;
20179;SDS011;10249;48.900;9.090;2023-07-08T09:34:40;15.15;;;14.45;;
20179;SDS011;10249;48.900;9.090;2023-07-08T09:37:20;15.18;;;14.48;;
20179;SDS011;10249;48.900;9.090;2023-07-08T09:39:47;15.48;;;14.77;;
20179;SDS011;10249;48.900;9.090;2023-07-08T09:42:15;15.40;;;14.70;;
20179;SDS011;10249;48.900;9.090;2023-07-08T09:44:44;15.90;;;15.20;;
20179;SDS011;10249;48.900;9.090;2023-07-08T09:47:19;15.38;;;14.68;;
20179;SDS011;10249;48.900;9.090;2023-07-08T09:49:47;15.43;;;14.73;;
20179;SDS011;10249;48.900;9.090;2023-07-08T09:52:14;14.90;;;14.20;;
20179;SDS011;10249;48.900;9.090;2023-07-08T09:54:44;15.32;;;14.63;;
20179;SDS011;10249;48.900;9.090;2023-07-08T09:57:12;15.10;;;14.40;;
20179;SDS011;10249;48.900;9.090;2023-07-08T09:59:43;15.10;;;14.40;;
20179;SDS011;10249;48.900;9.090;2023-07-08T10:02:24;15.07;;;14.38;;
20179;SDS011;10249;48.900;9.090;2023-07-08T10:04:52;15.05;;;14.35;;
20179;SDS011;10249;48.900;9.090;2023-07-08T10:07:20;15.35;;;14.65;;
20179;SDS011;10249;48.900;9.090;2023-07-08T10:09:48;15.27;;;14.57;;
20179;SDS011;10249;48.900;9.090;2023-07-08T10:12:18;15.32;;;14.63;;
20179;SDS011;10249;48.900;9.090;2023-07-08T10:14:47;15.27;;;14.57;;
20179;SDS011;10249;48.900;9.090;2023-07-08T10:17:16;15.23;;;14.52;;
20179;SDS011;10249;48.900;9.090;2023-07-08T10:19:44;15.27;;;14.57;;
20179;SDS011;10249;48.900;9.090;2023-07-08T10:22:15;15.13;;;14.43;;
20179;SDS011;10249;48.900;9.090;2023-07-08T10:24:55;14.98;;;14.27;;
20179;SDS011;10249;48.900;9.090;2023-07-08T10:27:27;14.90;;;14.20;;
20179;SDS011;10249;48.900;9.090;2023-07-08T10:29:58;15.10;;;14.40;;
20179;SDS011;10249;48.900;9.090;2023-07-08T10:32:33;15.27;;;14.57;;
20179;SDS011;10249;48.900;9.090;2023-07-08T10:35:08;15.27;;;14.57;;
20179;SDS011;10249;48.900;9.090;2023-07-08T10:37:39;16.83;;;16.05;;
20179;SDS011;10249;48.900;9.090;2023-07-08T10:40:13;15.65;;;14.95;;
20179;SDS011;10249;48.900;9.090;2023-07-08T10:42:53;15.52;;;14.82;;
20179;SDS011;10249;48.900;9.090;2023-07-08T10:45:23;15.60;;;14.90;;
20179;SDS011;10249;48.900;9.090;2023-07-08T10:48:00;15.65;;;14.95;;
20179;SDS011;10249;48.900;9.090;2023-07-08T10:50:35;15.23;;;14.52;;
20179;SDS011;10249;48.900;9.090;2023-07-08T10:53:22;15.07;;;14.38;;
20179;SDS011;10249;48.900;9.090;2023-07-08T10:55:57;15.05;;;14.35;;
20179;SDS011;10249;48.900;9.090;2023-07-08T10:58:29;15.23;;;14.52;;
20179;SDS011;10249;48.900;9.090;2023-07-08T11:01:01;15.05;;;14.35;;
20179;SDS011;10249;48.900;9.090;2023-07-08T11:03:40;15.18;;;14.48;;
20179;SDS011;10249;48.900;9.090;2023-07-08T11:06:11;15.15;;;14.45;;
20179;SDS011;10249;48.900;9.090;2023-07-08T11:08:41;15.35;;;14.65;;
20179;SDS011;10249;48.900;9.090;2023-07-08T11:11:12;15.20;;;14.50;;
20179;SDS011;10249;48.900;9.090;2023-07-08T11:13:43;15.23;;;14.52;;
20179;SDS011;10249;48.900;9.090;2023-07-08T11:16:15;15.48;;;14.77;;
20179;SDS011;10249;48.900;9.090;2023-07-08T11:18:45;15.40;;;14.70;;
20179;SDS011;10249;48.900;9.090;2023-07-08T11:21:14;15.63;;;14.93;;
20179;SDS011;10249;48.900;9.090;2023-07-08T11:23:43;15.52;;;14.82;;
20179;SDS011;10249;48.900;9.090;2023-07-08T11:26:16;15.52;;;14.82;;
20179;SDS011;10249;48.900;9.090;2023-07-08T11:28:45;15.60;;;14.90;;
20179;SDS011;10249;48.900;9.090;2023-07-08T11:31:13;15.05;;;14.35;;
20179;SDS011;10249;48.900;9.090;2023-07-08T11:33:41;15.07;;;14.38;;
20179;SDS011;10249;48.900;9.090;2023-07-08T11:36:08;15.00;;;14.30;;
20179;SDS011;10249;48.900;9.090;2023-07-08T11:38:36;14.95;;;14.25;;
20179;SDS011;10249;48.900;9.090;2023-07-08T11:41:10;15.05;;;14.35;;
20179;SDS011;10249;48.900;9.090;2023-07-08T11:43:41;15.00;;;14.30;;
20179;SDS011;10249;48.900;9.090;2023-07-08T11:46:12;15.05;;;14.35;;
20179;SDS011;10249;48.900;9.090;2023-07-08T11:48:42;14.95;;;14.25;;
20179;SDS011;10249;48.900;9.090;2023-07-08T11:51:10;15.18;;;14.48;;
20179;SDS011;10249;48.900;9.090;2023-07-08T11:53:46;15.13;;;14.43;;
20179;SDS011;10249;48.900;9.090;2023-07-08T11:56:20;15.00;;;14.30;;
20179;SDS011;10249;48.900;9.090;2023-07-08T11:58:57;15.00;;;14.30;;
20179;SDS011;10249;48.900;9.090;2023-07-08T12:01:26;15.00;;;14.30;;
20179;SDS011;10249;48.900;9.090;2023-07-08T12:03:55;15.02;;;14.32;;
20179;SDS011;10249;48.900;9.090;2023-07-08T12:06:40;14.68;;;13.98;;
20179;SDS011;10249;48.900;9.090;2023-07-08T12:09:13;14.85;;;14.15;;
20179;SDS011;10249;48.900;9.090;2023-07-08T12:11:43;14.85;;;14.15;;
20179;SDS011;10249;48.900;9.090;2023-07-08T12:14:11;14.80;;;14.10;;
20179;SDS011;10249;48.900;9.090;2023-07-08T12:16:40;14.90;;;14.20;;
20179;SDS011;10249;48.900;9.090;2023-07-08T12:19:09;15.02;;;14.32;;
20179;SDS011;10249;48.900;9.090;2023-07-08T12:21:38;14.95;;;14.25;;
20179;SDS011;10249;48.900;9.090;2023-07-08T12:24:05;15.00;;;14.30;;
20179;SDS011;10249;48.900;9.090;2023-07-08T12:26:33;15.02;;;14.32;;
20179;SDS011;10249;48.900;9.090;2023-07-08T12:29:00;14.80;;;14.10;;
20179;SDS011;10249;48.900;9.090;2023-07-08T12:31:29;15.02;;;14.32;;
20179;SDS011;10249;48.900;9.090;2023-07-08T12:33:57;14.95;;;14.25;;
20179;SDS011;10249;48.900;9.090;2023-07-08T12:36:25;15.10;;;14.40;;
20179;SDS011;10249;48.900;9.090;2023-07-08T12:38:54;14.95;;;14.25;;
20179;SDS011;10249;48.900;9.090;2023-07-08T12:41:22;14.80;;;14.10;;
20179;SDS011;10249;48.900;9.090;2023-07-08T12:43:50;14.90;;;14.20;;
20179;SDS011;10249;48.900;9.090;2023-07-08T12:46:18;14.95;;;14.25;;
20179;SDS011;10249;48.900;9.090;2023-07-08T12:48:47;14.80;;;14.10;;
20179;SDS011;10249;48.900;9.090;2023-07-08T12:51:15;15.00;;;14.30;;
20179;SDS011;10249;48.900;9.090;2023-07-08T12:53:43;14.98;;;14.27;;
20179;SDS011;10249;48.900;9.090;2023-07-08T12:56:10;14.98;;;14.27;;
20179;SDS011;10249;48.900;9.090;2023-07-08T12:58:38;15.15;;;14.45;;
20179;SDS011;10249;48.900;9.090;2023-07-08T13:01:07;15.13;;;14.43;;
20179;SDS011;10249;48.900;9.090;2023-07-08T13:03:35;14.85;;;14.15;;
20179;SDS011;10249;48.900;9.090;2023-07-08T13:06:04;14.85;;;14.15;;
20179;SDS011;10249;48.900;9.090;2023-07-08T13:08:34;14.70;;;14.00;;
20179;SDS011;10249;48.900;9.090;2023-07-08T13:11:01;14.82;;;14.13;;
20179;SDS011;10249;48.900;9.090;2023-07-08T13:13:31;14.80;;;14.10;;
20179;SDS011;10249;48.900;9.090;2023-07-08T13:16:00;15.00;;;14.30;;
20179;SDS011;10249;48.900;9.090;2023-07-08T13:18:29;14.98;;;14.27;;
20179;SDS011;10249;48.900;9.090;2023-07-08T13:20:58;15.02;;;14.32;;
20179;SDS011;10249;48.900;9.090;2023-07-08T13:23:27;14.93;;;14.23;;
20179;SDS011;10249;48.900;9.090;2023-07-08T13:25:54;14.90;;;14.20;;
20179;SDS011;10249;48.900;9.090;2023-07-08T13:28:23;14.68;;;13.98;;
20179;SDS011;10249;48.900;9.090;2023-07-08T13:30:50;14.85;;;14.15;;
20179;SDS011;10249;48.900;9.090;2023-07-08T13:33:18;14.82;;;14.13;;
20179;SDS011;10249;48.900;9.090;2023-07-08T13:35:46;15.02;;;14.32;;
20179;SDS011;10249;48.900;9.090;2023-07-08T13:38:14;14.80;;;14.10;;
20179;SDS011;10249;48.900;9.090;2023-07-08T13:40:44;15.48;;;14.77;;
20179;SDS011;10249;48.900;9.090;2023-07-08T13:43:14;15.23;;;14.52;;
20179;SDS011;10249;48.900;9.090;2023-07-08T13:45:43;15.10;;;14.40;;
20179;SDS011;10249;48.900;9.090;2023-07-08T13:48:14;15.05;;;14.35;;
20179;SDS011;10249;48.900;9.090;2023-07-08T13:50:44;15.15;;;14.45;;
20179;SDS011;10249;48.900;9.090;2023-07-08T13:53:19;15.02;;;14.32;;
20179;SDS011;10249;48.900;9.090;2023-07-08T13:55:48;14.73;;;14.02;;
20179;SDS011;10249;48.900;9.090;2023-07-08T13:58:16;15.50;;;14.80;;
20179;SDS011;10249;48.900;9.090;2023-07-08T14:00:44;14.75;;;14.05;;
20179;SDS011;10249;48.900;9.090;2023-07-08T14:03:11;14.18;;;13.57;;
20179;SDS011;10249;48.900;9.090;2023-07-08T14:05:39;14.43;;;13.82;;
20179;SDS011;10249;48.900;9.090;2023-07-08T14:08:10;14.45;;;13.85;;
20179;SDS011;10249;48.900;9.090;2023-07-08T14:10:38;14.68;;;14.02;;
20179;SDS011;10249;48.900;9.090;2023-07-08T14:13:06;14.50;;;13.90;;
20179;SDS011;10249;48.900;9.090;2023-07-08T14:15:34;14.38;;;13.77;;
20179;SDS011;10249;48.900;9.090;2023-07-08T14:18:02;14.15;;;13.55;;
20179;SDS011;10249;48.900;9.090;2023-07-08T14:20:29;14.32;;;13.73;;
20179;SDS011;10249;48.900;9.090;2023-07-08T14:22:57;13.98;;;13.38;;
20179;SDS011;10249;48.900;9.090;2023-07-08T14:25:24;14.13;;;13.52;;
20179;SDS011;10249;48.900;9.090;2023-07-08T14:27:51;13.95;;;13.35;;
20179;SDS011;10249;48.900;9.090;2023-07-08T14:30:20;14.30;;;13.70;;